createdAt,value
2023-05-06T00:01:22.140Z,14.70
2023-05-06T00:03:49.251Z,14.60
2023-05-06T00:06:16.461Z,14.70
2023-05-06T00:08:43.413Z,14.70
2023-05-06T00:11:10.434Z,14.60
2023-05-06T00:13:38.069Z,14.50
2023-05-06T00:16:05.483Z,14.50
2023-05-06T00:18:32.515Z,14.50
2023-05-06T00:20:59.594Z,14.60
2023-05-06T00:23:26.493Z,14.60
2023-05-06T00:25:56.571Z,14.60
2023-05-06T00:28:23.527Z,14.60
2023-05-06T00:30:50.407Z,14.70
2023-05-06T00:33:17.286Z,14.70
2023-05-06T00:35:44.329Z,14.70
2023-05-06T00:38:13.502Z,14.60
2023-05-06T00:40:40.652Z,14.60
2023-05-06T00:43:07.736Z,14.70
2023-05-06T00:45:35.247Z,14.60
2023-05-06T00:48:04.292Z,14.70
2023-05-06T00:50:33.281Z,14.70
2023-05-06T00:53:03.620Z,14.70
2023-05-06T00:55:31.265Z,14.60
2023-05-06T00:57:58.551Z,14.60
2023-05-06T01:00:26.353Z,14.60
2023-05-06T01:02:54.228Z,14.60
2023-05-06T01:05:23.833Z,14.60
2023-05-06T01:08:02.271Z,14.60
2023-05-06T01:10:35.669Z,14.50
2023-05-06T01:13:42.784Z,14.60
2023-05-06T01:16:12.767Z,14.60
2023-05-06T01:18:41.103Z,14.50
2023-05-06T01:21:09.387Z,14.50
2023-05-06T01:23:56.102Z,14.50
2023-05-06T01:26:23.551Z,14.40
2023-05-06T01:28:50.744Z,14.30
2023-05-06T01:31:27.114Z,14.40
2023-05-06T01:34:08.922Z,14.30
2023-05-06T01:36:48.343Z,14.20
2023-05-06T01:39:20.472Z,14.10
2023-05-06T01:41:49.538Z,13.90
2023-05-06T01:44:17.492Z,13.90
2023-05-06T01:46:45.936Z,13.80
2023-05-06T01:49:16.947Z,13.70
2023-05-06T01:51:51.406Z,13.70
2023-05-06T01:54:18.362Z,13.70
2023-05-06T01:56:45.468Z,13.70
2023-05-06T01:59:12.578Z,13.70
2023-05-06T02:01:39.523Z,13.70
2023-05-06T02:04:06.549Z,13.60
2023-05-06T02:06:33.674Z,13.60
2023-05-06T02:09:04.207Z,13.50
2023-05-06T02:11:31.165Z,13.50
2023-05-06T02:13:58.400Z,13.50
2023-05-06T02:16:28.662Z,13.50
2023-05-06T02:18:55.726Z,13.60
2023-05-06T02:21:23.289Z,13.60
2023-05-06T02:23:50.760Z,13.60
2023-05-06T02:26:17.813Z,13.50
2023-05-06T02:28:44.757Z,13.50
2023-05-06T02:31:17.836Z,13.60
2023-05-06T02:33:45.728Z,13.60
2023-05-06T02:36:12.659Z,13.60
2023-05-06T02:38:39.533Z,13.60
2023-05-06T02:41:06.487Z,13.60
2023-05-06T02:43:33.461Z,13.60
2023-05-06T02:46:01.970Z,13.70
2023-05-06T02:48:28.973Z,13.70
2023-05-06T02:50:55.929Z,13.70
2023-05-06T02:53:22.869Z,13.80
2023-05-06T02:55:49.755Z,13.80
2023-05-06T02:58:16.655Z,13.70
2023-05-06T03:00:43.732Z,13.70
2023-05-06T03:03:10.670Z,13.70
2023-05-06T03:05:37.585Z,13.60
2023-05-06T03:08:04.782Z,13.50
2023-05-06T03:10:31.701Z,13.60
2023-05-06T03:12:58.654Z,13.50
2023-05-06T03:15:26.201Z,13.50
2023-05-06T03:17:53.305Z,13.40
2023-05-06T03:20:21.612Z,13.30
2023-05-06T03:22:48.718Z,13.20
2023-05-06T03:25:15.768Z,13.20
2023-05-06T03:27:42.775Z,13.10
2023-05-06T03:30:10.655Z,13.10
2023-05-06T03:32:38.647Z,13.10
2023-05-06T03:35:06.918Z,13.00
2023-05-06T03:37:34.047Z,13.00
2023-05-06T03:40:04.029Z,13.00
2023-05-06T03:42:31.352Z,13.00
2023-05-06T03:44:58.381Z,12.90
2023-05-06T03:47:25.452Z,12.90
2023-05-06T03:49:52.654Z,12.90
2023-05-06T03:52:19.643Z,12.90
2023-05-06T03:54:46.572Z,12.90
2023-05-06T03:57:13.568Z,12.80
2023-05-06T03:59:40.582Z,12.80
2023-05-06T04:02:07.835Z,12.70
2023-05-06T04:04:34.962Z,12.70
2023-05-06T04:07:02.388Z,12.60
2023-05-06T04:09:29.443Z,12.60
2023-05-06T04:11:57.184Z,12.50
2023-05-06T04:14:24.246Z,12.50
2023-05-06T04:16:51.269Z,12.50
2023-05-06T04:19:18.335Z,12.50
2023-05-06T04:21:45.493Z,12.50
2023-05-06T04:24:13.797Z,12.50
2023-05-06T04:26:40.832Z,12.50
2023-05-06T04:29:08.035Z,12.50
2023-05-06T04:31:37.060Z,12.50
2023-05-06T04:34:04.443Z,12.50
2023-05-06T04:36:31.362Z,12.50
2023-05-06T04:38:58.517Z,12.50
2023-05-06T04:41:26.077Z,12.50
2023-05-06T04:43:53.052Z,12.60
2023-05-06T04:46:21.084Z,12.60
2023-05-06T04:48:48.175Z,12.70
2023-05-06T04:51:15.310Z,12.60
2023-05-06T04:53:42.411Z,12.70
2023-05-06T04:56:09.585Z,12.60
2023-05-06T04:58:36.704Z,12.70
2023-05-06T05:01:05.830Z,12.60
2023-05-06T05:03:33.178Z,12.60
2023-05-06T05:06:00.339Z,12.80
2023-05-06T05:08:27.736Z,12.70
2023-05-06T05:10:54.772Z,12.80
2023-05-06T05:13:21.894Z,12.80
2023-05-06T05:15:48.954Z,12.80
2023-05-06T05:18:15.885Z,13.00
2023-05-06T05:20:42.897Z,13.00
2023-05-06T05:23:09.906Z,13.10
2023-05-06T05:25:37.159Z,13.10
2023-05-06T05:28:04.582Z,13.10
2023-05-06T05:30:31.566Z,13.20
2023-05-06T05:32:58.610Z,13.30
2023-05-06T05:35:25.901Z,13.30
2023-05-06T05:37:52.873Z,13.40
2023-05-06T05:40:19.955Z,13.50
2023-05-06T05:42:46.985Z,13.50
2023-05-06T05:45:13.898Z,13.60
2023-05-06T05:47:40.909Z,13.70
2023-05-06T05:50:08.552Z,13.70
2023-05-06T05:52:35.567Z,13.70
2023-05-06T05:55:02.696Z,13.80
2023-05-06T05:57:29.731Z,13.90
2023-05-06T05:59:56.721Z,13.90
2023-05-06T06:02:23.875Z,14.00
2023-05-06T06:04:51.065Z,14.00
2023-05-06T06:07:18.063Z,14.10
2023-05-06T06:09:46.903Z,14.20
2023-05-06T06:12:15.551Z,14.20
2023-05-06T06:14:47.829Z,14.30
2023-05-06T06:17:15.716Z,14.30
2023-05-06T06:19:43.250Z,14.30
2023-05-06T06:22:10.190Z,14.40
2023-05-06T06:24:37.123Z,14.50
2023-05-06T06:27:04.052Z,14.60
2023-05-06T06:29:31.338Z,14.70
2023-05-06T06:31:59.117Z,14.70
2023-05-06T06:34:26.050Z,14.80
2023-05-06T06:36:53.018Z,14.90
2023-05-06T06:39:20.075Z,15.00
2023-05-06T06:41:47.146Z,15.10
2023-05-06T06:44:14.427Z,15.30
2023-05-06T06:46:41.734Z,15.30
2023-05-06T06:49:08.702Z,15.50
2023-05-06T06:51:35.715Z,15.50
2023-05-06T06:54:03.186Z,15.40
2023-05-06T06:56:30.821Z,15.20
2023-05-06T06:58:57.767Z,15.20
2023-05-06T07:01:25.028Z,15.30
2023-05-06T07:03:52.009Z,15.40
2023-05-06T07:06:19.134Z,15.60
2023-05-06T07:08:46.144Z,15.80
2023-05-06T07:11:14.619Z,15.90
2023-05-06T07:13:41.667Z,15.90
2023-05-06T07:16:09.017Z,15.80
2023-05-06T07:18:36.029Z,15.80
2023-05-06T07:21:03.031Z,15.90
2023-05-06T07:23:32.767Z,16.10
2023-05-06T07:26:04.140Z,16.30
2023-05-06T07:28:32.099Z,16.30
2023-05-06T07:30:59.037Z,16.20
2023-05-06T07:33:26.092Z,16.20
2023-05-06T07:35:54.696Z,16.10
2023-05-06T07:38:24.806Z,16.10
2023-05-06T07:40:51.811Z,16.20
2023-05-06T07:43:19.081Z,16.50
2023-05-06T07:45:46.287Z,16.70
2023-05-06T07:48:13.216Z,17.00
2023-05-06T07:50:40.111Z,17.30
2023-05-06T07:53:07.162Z,17.20
2023-05-06T07:55:35.187Z,17.30
2023-05-06T07:58:02.269Z,17.20
2023-05-06T08:00:29.137Z,17.20
2023-05-06T08:02:56.350Z,17.20
2023-05-06T08:05:23.412Z,17.40
2023-05-06T08:07:50.494Z,17.60
2023-05-06T08:10:17.699Z,17.90
2023-05-06T08:12:44.639Z,18.20
2023-05-06T08:15:12.351Z,18.30
2023-05-06T08:17:40.133Z,18.40
2023-05-06T08:20:08.171Z,18.50
2023-05-06T08:22:35.128Z,18.50
2023-05-06T08:25:02.370Z,18.60
2023-05-06T08:27:29.170Z,18.80
2023-05-06T08:29:56.112Z,18.80
2023-05-06T08:32:23.165Z,19.00
2023-05-06T08:34:50.112Z,19.40
2023-05-06T08:37:17.049Z,19.50
2023-05-06T08:39:45.571Z,19.40
2023-05-06T08:42:12.786Z,19.60
2023-05-06T08:44:39.945Z,19.80
2023-05-06T08:47:06.964Z,20.00
2023-05-06T08:49:34.410Z,20.20
2023-05-06T08:52:04.606Z,20.30
2023-05-06T08:54:35.555Z,20.30
2023-05-06T08:57:05.414Z,20.50
2023-05-06T08:59:33.868Z,20.80
2023-05-06T09:02:02.493Z,21.10
2023-05-06T09:04:30.104Z,21.20
2023-05-06T09:06:58.793Z,21.30
2023-05-06T09:09:26.412Z,21.40
2023-05-06T09:11:57.845Z,21.20
2023-05-06T09:14:25.091Z,21.20
2023-05-06T09:16:53.286Z,21.50
2023-05-06T09:19:21.852Z,21.80
2023-05-06T09:21:50.916Z,22.00
2023-05-06T09:24:18.747Z,21.80
2023-05-06T09:26:47.208Z,21.90
2023-05-06T09:29:14.427Z,21.90
2023-05-06T09:31:43.421Z,22.00
2023-05-06T09:34:11.291Z,22.20
2023-05-06T09:36:38.543Z,22.50
2023-05-06T09:39:06.282Z,22.80
2023-05-06T09:41:33.451Z,23.00
2023-05-06T09:44:01.150Z,23.20
2023-05-06T09:46:28.302Z,23.30
2023-05-06T09:48:57.808Z,23.10
2023-05-06T09:51:27.786Z,23.10
2023-05-06T09:53:56.854Z,23.00
2023-05-06T09:56:24.973Z,22.80
2023-05-06T09:58:52.811Z,22.80
2023-05-06T10:01:32.717Z,23.00
2023-05-06T10:04:06.471Z,23.40
2023-05-06T10:06:36.877Z,23.70
2023-05-06T10:09:06.501Z,23.70
2023-05-06T10:11:34.154Z,24.10
2023-05-06T10:14:02.479Z,24.50
2023-05-06T10:16:29.779Z,24.80
2023-05-06T10:18:58.214Z,25.00
2023-05-06T10:21:32.420Z,24.70
2023-05-06T10:24:08.985Z,24.50
2023-05-06T10:26:38.166Z,24.70
2023-05-06T10:29:09.301Z,24.80
2023-05-06T10:31:43.945Z,24.60
2023-05-06T10:34:11.039Z,24.70
2023-05-06T10:36:39.412Z,24.90
2023-05-06T10:39:10.208Z,25.30
2023-05-06T10:41:37.881Z,25.50
2023-05-06T10:44:06.121Z,25.60
2023-05-06T10:47:02.334Z,25.20
2023-05-06T10:49:29.403Z,25.00
2023-05-06T10:52:12.134Z,24.60
2023-05-06T10:54:50.852Z,24.80
2023-05-06T10:57:18.560Z,25.20
2023-05-06T10:59:49.252Z,25.60
2023-05-06T11:02:20.459Z,26.00
2023-05-06T11:04:52.725Z,25.90
2023-05-06T11:07:24.326Z,26.00
2023-05-06T11:10:02.110Z,25.60
2023-05-06T11:12:44.549Z,24.70
2023-05-06T11:15:36.275Z,23.90
2023-05-06T11:18:34.014Z,23.80
2023-05-06T11:21:01.070Z,23.90
2023-05-06T11:23:49.631Z,23.90
2023-05-06T11:26:16.822Z,24.00
2023-05-06T11:28:47.947Z,24.20
2023-05-06T11:31:16.212Z,24.40
2023-05-06T11:33:52.504Z,24.80
2023-05-06T11:36:21.024Z,25.30
2023-05-06T11:38:51.299Z,25.20
2023-05-06T11:41:19.257Z,25.50
2023-05-06T11:43:50.219Z,25.80
2023-05-06T11:46:20.103Z,26.00
2023-05-06T11:48:47.267Z,25.90
2023-05-06T11:51:15.016Z,26.20
2023-05-06T11:53:42.154Z,26.30
2023-05-06T11:56:09.196Z,26.60
2023-05-06T11:58:36.315Z,27.00
2023-05-06T12:01:04.493Z,27.20
2023-05-06T12:03:33.194Z,27.40
2023-05-06T12:06:01.439Z,27.50
2023-05-06T12:08:34.660Z,27.50
2023-05-06T12:11:06.245Z,27.10
2023-05-06T12:13:36.849Z,26.80
2023-05-06T12:16:05.225Z,26.70
2023-05-06T12:18:32.867Z,26.20
2023-05-06T12:21:02.777Z,25.80
2023-05-06T12:23:30.124Z,26.00
2023-05-06T12:26:04.938Z,26.20
2023-05-06T12:28:33.205Z,25.90
2023-05-06T12:31:01.294Z,25.80
2023-05-06T12:33:28.555Z,26.00
2023-05-06T12:36:07.437Z,26.50
2023-05-06T12:38:34.726Z,27.00
2023-05-06T12:41:01.888Z,27.10
2023-05-06T12:43:31.048Z,27.60
2023-05-06T12:46:09.020Z,27.10
2023-05-06T12:48:36.121Z,26.30
2023-05-06T12:51:19.228Z,25.90
2023-05-06T12:53:46.473Z,26.20
2023-05-06T12:56:14.214Z,26.60
2023-05-06T12:58:41.437Z,27.20
2023-05-06T13:01:08.741Z,27.20
2023-05-06T13:03:38.274Z,26.70
2023-05-06T13:06:05.995Z,26.50
2023-05-06T13:08:33.911Z,25.90
2023-05-06T13:11:02.479Z,25.40
2023-05-06T13:13:29.618Z,25.00
2023-05-06T13:15:57.087Z,24.90
2023-05-06T13:18:24.003Z,24.60
2023-05-06T13:20:51.765Z,24.50
2023-05-06T13:23:19.587Z,24.30
2023-05-06T13:26:02.869Z,24.50
2023-05-06T13:28:32.298Z,24.90
2023-05-06T13:30:59.460Z,24.90
2023-05-06T13:33:26.607Z,25.10
2023-05-06T13:35:53.640Z,25.40
2023-05-06T13:38:21.056Z,25.20
2023-05-06T13:40:52.229Z,25.10
2023-05-06T13:43:26.042Z,25.20
2023-05-06T13:45:53.482Z,25.10
2023-05-06T13:48:20.435Z,25.00
2023-05-06T13:50:47.648Z,25.00
2023-05-06T13:53:15.405Z,25.00
2023-05-06T13:55:43.852Z,25.20
2023-05-06T13:58:11.111Z,25.50
2023-05-06T14:00:38.202Z,25.30
2023-05-06T14:03:05.339Z,25.40
2023-05-06T14:05:32.740Z,26.00
2023-05-06T14:07:59.755Z,26.30
2023-05-06T14:10:26.958Z,26.10
2023-05-06T14:12:54.101Z,26.00
2023-05-06T14:15:21.251Z,26.20
2023-05-06T14:17:48.189Z,26.10
2023-05-06T14:20:15.288Z,26.10
2023-05-06T14:22:42.531Z,26.10
2023-05-06T14:25:10.096Z,26.10
2023-05-06T14:27:37.425Z,26.30
2023-05-06T14:30:08.231Z,26.50
2023-05-06T14:32:36.425Z,26.40
2023-05-06T14:35:03.757Z,26.50
2023-05-06T14:37:30.731Z,26.50
2023-05-06T14:39:57.793Z,25.90
2023-05-06T14:42:24.713Z,25.50
2023-05-06T14:44:51.584Z,24.60
2023-05-06T14:47:19.003Z,24.50
2023-05-06T14:49:46.117Z,24.40
2023-05-06T14:52:13.086Z,24.30
2023-05-06T14:54:43.047Z,24.50
2023-05-06T14:57:10.521Z,24.50
2023-05-06T14:59:38.485Z,24.50
2023-05-06T15:02:09.830Z,24.70
2023-05-06T15:04:37.104Z,24.60
2023-05-06T15:07:04.452Z,24.70
2023-05-06T15:09:31.677Z,25.00
2023-05-06T15:11:58.760Z,25.10
2023-05-06T15:14:26.047Z,25.00
2023-05-06T15:16:57.048Z,25.20
2023-05-06T15:19:24.502Z,25.70
2023-05-06T15:21:51.677Z,25.80
2023-05-06T15:24:18.595Z,25.50
2023-05-06T15:26:45.940Z,25.30
2023-05-06T15:29:13.162Z,25.30
2023-05-06T15:31:41.140Z,25.60
2023-05-06T15:34:10.713Z,25.90
2023-05-06T15:36:38.851Z,25.50
2023-05-06T15:39:05.885Z,25.40
2023-05-06T15:41:34.288Z,25.40
2023-05-06T15:44:02.764Z,25.20
2023-05-06T15:46:31.592Z,25.00
2023-05-06T15:49:21.013Z,24.70
2023-05-06T15:51:46.823Z,24.50
2023-05-06T15:54:18.209Z,24.60
2023-05-06T15:56:46.124Z,25.10
2023-05-06T15:59:13.045Z,25.30
2023-05-06T16:04:10.184Z,25.50
2023-05-06T16:06:37.352Z,25.20
2023-05-06T16:09:04.323Z,24.90
2023-05-06T16:11:31.595Z,25.00
2023-05-06T16:13:58.674Z,25.20
2023-05-06T16:16:25.903Z,25.40
2023-05-06T16:18:52.939Z,25.20
2023-05-06T16:21:20.001Z,25.20
2023-05-06T16:23:47.020Z,25.40
2023-05-06T16:26:14.900Z,25.30
2023-05-06T16:28:41.842Z,25.30
2023-05-06T16:31:09.017Z,25.00
2023-05-06T16:33:36.191Z,24.80
2023-05-06T16:36:03.581Z,24.60
2023-05-06T16:38:30.824Z,24.70
2023-05-06T16:40:57.809Z,24.60
2023-05-06T16:43:24.761Z,24.40
2023-05-06T16:45:51.890Z,24.40
2023-05-06T16:48:18.980Z,24.30
2023-05-06T16:50:46.293Z,24.30
2023-05-06T16:53:13.531Z,24.20
2023-05-06T16:55:40.528Z,24.00
2023-05-06T16:58:07.410Z,24.00
2023-05-06T17:00:34.449Z,24.00
2023-05-06T17:03:01.741Z,23.90
2023-05-06T17:05:31.021Z,23.70
2023-05-06T17:10:29.266Z,23.30
2023-05-06T17:12:57.371Z,23.10
2023-05-06T17:15:25.031Z,22.90
2023-05-06T17:17:52.338Z,22.80
2023-05-06T17:20:23.022Z,22.50
2023-05-06T17:22:50.242Z,22.20
2023-05-06T17:25:17.637Z,22.10
2023-05-06T17:27:45.085Z,22.00
2023-05-06T17:30:12.727Z,21.90
2023-05-06T17:32:40.218Z,21.90
2023-05-06T17:35:07.968Z,21.90
2023-05-06T17:37:35.078Z,21.90
2023-05-06T17:40:02.997Z,21.90
2023-05-06T17:42:30.814Z,21.80
2023-05-06T17:44:57.832Z,21.80
2023-05-06T17:47:24.943Z,21.70
2023-05-06T17:49:55.053Z,21.60
2023-05-06T17:52:23.740Z,21.50
2023-05-06T17:55:05.747Z,21.50
2023-05-06T17:57:38.099Z,21.50
2023-05-06T18:00:07.384Z,21.50
2023-05-06T18:02:34.695Z,21.30
2023-05-06T18:05:02.190Z,21.20
2023-05-06T18:07:29.840Z,21.10
2023-05-06T18:09:56.816Z,21.00
2023-05-06T18:12:24.009Z,21.00
2023-05-06T18:14:51.047Z,20.80
2023-05-06T18:17:18.140Z,20.70
2023-05-06T18:19:45.194Z,20.60
2023-05-06T18:22:12.373Z,20.50
2023-05-06T18:24:39.609Z,20.40
2023-05-06T18:27:06.867Z,20.30
2023-05-06T18:29:35.128Z,20.20
2023-05-06T18:32:02.410Z,20.10
2023-05-06T18:34:29.636Z,20.10
2023-05-06T18:36:58.278Z,20.10
2023-05-06T18:39:26.004Z,20.10
2023-05-06T18:41:53.209Z,20.10
2023-05-06T18:44:20.533Z,20.00
2023-05-06T18:46:47.907Z,19.90
2023-05-06T18:49:15.066Z,19.80
2023-05-06T18:51:42.256Z,19.70
2023-05-06T18:54:09.444Z,19.60
2023-05-06T18:56:37.499Z,19.50
2023-05-06T18:59:04.786Z,19.40
2023-05-06T19:01:32.038Z,19.30
2023-05-06T19:03:59.630Z,19.10
2023-05-06T19:06:26.785Z,19.10
2023-05-06T19:08:54.210Z,19.10
2023-05-06T19:11:21.716Z,19.00
2023-05-06T19:13:50.529Z,18.90
2023-05-06T19:16:17.858Z,19.00
2023-05-06T19:18:45.122Z,19.00
2023-05-06T19:21:12.760Z,19.00
2023-05-06T19:23:39.992Z,19.00
2023-05-06T19:26:09.932Z,18.90
2023-05-06T19:28:37.172Z,18.80
2023-05-06T19:31:11.467Z,18.80
2023-05-06T19:33:39.553Z,18.70
2023-05-06T19:36:06.976Z,18.70
2023-05-06T19:38:34.688Z,18.60
2023-05-06T19:41:02.138Z,18.60
2023-05-06T19:43:29.278Z,18.50
2023-05-06T19:45:56.496Z,18.50
2023-05-06T19:48:24.078Z,18.40
2023-05-06T19:50:53.969Z,18.40
2023-05-06T19:53:22.857Z,18.40
2023-05-06T19:55:50.102Z,18.30
2023-05-06T19:58:18.932Z,18.30
2023-05-06T20:00:46.367Z,18.30
2023-05-06T20:03:14.085Z,18.20
2023-05-06T20:05:42.144Z,18.20
2023-05-06T20:08:11.297Z,18.20
2023-05-06T20:10:38.825Z,18.20
2023-05-06T20:13:06.993Z,18.10
2023-05-06T20:15:35.465Z,18.00
2023-05-06T20:18:02.723Z,17.90
2023-05-06T20:20:34.388Z,17.80
2023-05-06T20:23:02.250Z,17.80
2023-05-06T20:25:29.565Z,17.70
2023-05-06T20:27:56.909Z,17.70
2023-05-06T20:30:24.014Z,17.70
2023-05-06T20:32:52.067Z,17.60
2023-05-06T20:35:19.464Z,17.50
2023-05-06T20:37:46.972Z,17.50
2023-05-06T20:40:15.343Z,17.50
2023-05-06T20:42:42.552Z,17.50
2023-05-06T20:45:10.192Z,17.30
2023-05-06T20:47:37.675Z,17.20
2023-05-06T20:50:05.274Z,17.10
2023-05-06T20:52:34.027Z,17.10
2023-05-06T20:55:01.912Z,17.00
2023-05-06T20:57:29.339Z,17.00
2023-05-06T20:59:56.653Z,17.10
2023-05-06T21:02:24.069Z,17.10
2023-05-06T21:04:51.937Z,17.10
2023-05-06T21:07:19.010Z,17.10
2023-05-06T21:09:46.388Z,17.10
2023-05-06T21:12:13.980Z,17.00
2023-05-06T21:14:41.135Z,16.90
2023-05-06T21:17:08.541Z,16.90
2023-05-06T21:19:35.765Z,16.80
2023-05-06T21:22:03.046Z,16.70
2023-05-06T21:24:31.215Z,16.60
2023-05-06T21:26:58.475Z,16.50
2023-05-06T21:29:25.769Z,16.40
2023-05-06T21:31:52.921Z,16.30
2023-05-06T21:34:23.215Z,16.30
2023-05-06T21:36:50.419Z,16.30
2023-05-06T21:39:17.580Z,16.30
2023-05-06T21:41:44.733Z,16.30
2023-05-06T21:44:12.033Z,16.20
2023-05-06T21:46:39.365Z,16.20
2023-05-06T21:49:06.508Z,16.20
2023-05-06T21:51:35.012Z,16.30
2023-05-06T21:54:03.226Z,16.30
2023-05-06T21:56:30.506Z,16.20
2023-05-06T21:58:57.803Z,16.10
2023-05-06T22:01:29.301Z,16.10
2023-05-06T22:03:56.628Z,16.00
2023-05-06T22:06:24.076Z,16.00
2023-05-06T22:08:51.524Z,15.90
2023-05-06T22:11:18.726Z,15.90
2023-05-06T22:13:45.854Z,15.80
2023-05-06T22:16:13.289Z,15.80
2023-05-06T22:18:41.847Z,15.70
2023-05-06T22:21:09.908Z,15.70
2023-05-06T22:23:37.800Z,15.70
2023-05-06T22:26:04.925Z,15.70
2023-05-06T22:28:32.178Z,15.90
2023-05-06T22:30:59.298Z,15.80
2023-05-06T22:33:27.163Z,15.90
2023-05-06T22:35:55.704Z,15.90
2023-05-06T22:38:22.760Z,15.80
2023-05-06T22:40:49.929Z,15.70
2023-05-06T22:43:17.242Z,15.70
2023-05-06T22:45:44.470Z,15.70
2023-05-06T22:48:11.461Z,15.70
2023-05-06T22:50:38.641Z,15.70
2023-05-06T22:53:14.439Z,15.70
2023-05-06T22:55:42.125Z,15.60
2023-05-06T22:58:08.995Z,15.70
2023-05-06T23:00:35.889Z,15.60
2023-05-06T23:03:03.174Z,15.60
2023-05-06T23:05:30.800Z,15.60
2023-05-06T23:07:57.787Z,15.70
2023-05-06T23:10:24.775Z,15.80
2023-05-06T23:12:52.011Z,15.80
2023-05-06T23:15:18.926Z,15.70
2023-05-06T23:17:45.826Z,15.60
2023-05-06T23:20:12.967Z,15.70
2023-05-06T23:22:40.020Z,15.60
2023-05-06T23:25:09.257Z,15.60
2023-05-06T23:27:39.837Z,15.70
2023-05-06T23:30:08.369Z,15.70
2023-05-06T23:32:35.417Z,15.60
2023-05-06T23:35:02.937Z,15.70
2023-05-06T23:37:29.903Z,15.70
2023-05-06T23:39:58.699Z,15.70
2023-05-06T23:42:26.121Z,15.60
2023-05-06T23:44:53.584Z,15.60
2023-05-06T23:47:20.694Z,15.50
2023-05-06T23:49:47.617Z,15.50
2023-05-06T23:52:14.505Z,15.50
2023-05-06T23:54:41.574Z,15.30
2023-05-06T23:57:08.803Z,15.30
2023-05-06T23:59:35.776Z,15.20
